createdAt,value
2023-01-23T00:00:54.873Z,35.20
2023-01-23T00:01:54.856Z,35.80
2023-01-23T00:02:54.835Z,34.00
2023-01-23T00:03:54.910Z,34.10
2023-01-23T00:04:54.809Z,35.60
2023-01-23T00:05:54.818Z,36.00
2023-01-23T00:06:54.800Z,33.90
2023-01-23T00:07:54.799Z,34.50
2023-01-23T00:08:54.776Z,33.60
2023-01-23T00:09:54.770Z,35.60
2023-01-23T00:10:54.757Z,34.50
2023-01-23T00:11:54.784Z,35.40
2023-01-23T00:12:54.779Z,35.10
2023-01-23T00:13:54.716Z,35.20
2023-01-23T00:14:54.719Z,34.90
2023-01-23T00:15:54.797Z,36.90
2023-01-23T00:16:54.948Z,37.00
2023-01-23T00:17:54.971Z,37.60
2023-01-23T00:18:54.698Z,36.00
2023-01-23T00:19:54.659Z,36.80
2023-01-23T00:20:54.667Z,35.90
2023-01-23T00:21:54.643Z,35.80
2023-01-23T00:22:54.615Z,34.80
2023-01-23T00:23:54.637Z,37.50
2023-01-23T00:24:54.631Z,35.90
2023-01-23T00:25:54.618Z,33.80
2023-01-23T00:26:54.590Z,34.30
2023-01-23T00:27:54.609Z,34.30
2023-01-23T00:28:54.586Z,34.40
2023-01-23T00:29:54.649Z,35.30
2023-01-23T00:30:54.620Z,33.80
2023-01-23T00:31:54.579Z,32.10
2023-01-23T00:32:54.512Z,32.60
2023-01-23T00:33:54.596Z,32.90
2023-01-23T00:34:54.562Z,34.90
2023-01-23T00:35:54.538Z,33.90
2023-01-23T00:36:54.500Z,33.90
2023-01-23T00:37:54.715Z,34.00
2023-01-23T00:38:54.454Z,32.70
2023-01-23T00:39:55.189Z,33.50
2023-01-23T00:40:54.664Z,32.10
2023-01-23T00:41:54.455Z,31.30
2023-01-23T00:42:54.494Z,32.00
2023-01-23T00:43:54.689Z,32.20
2023-01-23T00:44:54.378Z,31.70
2023-01-23T00:45:54.527Z,32.70
2023-01-23T00:46:54.365Z,31.90
2023-01-23T00:47:54.378Z,32.30
2023-01-23T00:48:54.557Z,32.30
2023-01-23T00:49:54.343Z,33.60
2023-01-23T00:50:54.369Z,32.10
2023-01-23T00:51:55.214Z,32.50
2023-01-23T00:52:54.441Z,31.20
2023-01-23T00:53:54.306Z,31.50
2023-01-23T00:54:54.495Z,32.50
2023-01-23T00:55:54.393Z,31.90
2023-01-23T00:56:54.304Z,31.90
2023-01-23T00:57:54.242Z,32.50
2023-01-23T00:58:54.243Z,31.80
2023-01-23T00:59:54.238Z,33.20
2023-01-23T01:00:54.231Z,32.50
2023-01-23T01:01:54.307Z,31.90
2023-01-23T01:02:54.286Z,31.90
2023-01-23T01:03:54.296Z,32.50
2023-01-23T01:04:54.183Z,31.60
2023-01-23T01:05:54.194Z,30.70
2023-01-23T01:06:54.143Z,30.80
2023-01-23T01:07:54.202Z,30.80
2023-01-23T01:08:54.131Z,31.10
2023-01-23T01:09:54.143Z,30.00
2023-01-23T01:10:54.105Z,29.30
2023-01-23T01:11:54.103Z,29.00
2023-01-23T01:12:54.097Z,30.60
2023-01-23T01:13:54.101Z,31.20
2023-01-23T01:14:54.065Z,30.50
2023-01-23T01:15:54.101Z,30.30
2023-01-23T01:16:54.086Z,31.00
2023-01-23T01:17:54.053Z,31.80
2023-01-23T01:18:55.002Z,32.30
2023-01-23T01:19:54.045Z,34.20
2023-01-23T01:20:54.126Z,33.70
2023-01-23T01:21:53.998Z,36.20
2023-01-23T01:22:53.978Z,32.90
2023-01-23T01:23:54.000Z,35.00
2023-01-23T01:24:53.988Z,34.90
2023-01-23T01:25:53.971Z,35.60
2023-01-23T01:26:53.960Z,35.10
2023-01-23T01:27:54.625Z,33.90
2023-01-23T01:28:53.975Z,33.50
2023-01-23T01:29:53.931Z,33.00
2023-01-23T01:30:54.126Z,32.80
2023-01-23T01:31:53.951Z,32.50
2023-01-23T01:32:53.884Z,34.20
2023-01-23T01:33:53.881Z,34.10
2023-01-23T01:34:53.841Z,33.30
2023-01-23T01:35:53.880Z,34.00
2023-01-23T01:36:53.845Z,32.90
2023-01-23T01:37:53.837Z,33.10
2023-01-23T01:38:53.831Z,33.90
2023-01-23T01:39:53.879Z,33.50
2023-01-23T01:40:53.801Z,31.80
2023-01-23T01:41:53.819Z,31.20
2023-01-23T01:42:53.782Z,29.50
2023-01-23T01:43:53.763Z,29.90
2023-01-23T01:44:53.754Z,31.30
2023-01-23T01:45:53.761Z,30.90
2023-01-23T01:46:53.805Z,31.10
2023-01-23T01:47:53.714Z,31.30
2023-01-23T01:48:53.735Z,29.60
2023-01-23T01:49:53.696Z,29.90
2023-01-23T01:50:53.729Z,30.20
2023-01-23T01:51:53.720Z,30.20
2023-01-23T01:52:53.698Z,29.80
2023-01-23T01:53:53.671Z,30.40
2023-01-23T01:54:53.655Z,30.10
2023-01-23T01:55:54.316Z,29.20
2023-01-23T01:56:53.624Z,29.40
2023-01-23T01:57:53.594Z,31.80
2023-01-23T01:58:53.611Z,29.40
2023-01-23T01:59:53.595Z,29.90
2023-01-23T02:00:53.655Z,28.20
2023-01-23T02:01:53.588Z,28.60
2023-01-23T02:02:53.846Z,30.50
2023-01-23T02:03:53.548Z,28.00
2023-01-23T02:04:53.545Z,32.10
2023-01-23T02:05:53.531Z,31.20
2023-01-23T02:06:53.531Z,30.10
2023-01-23T02:07:53.493Z,30.70
2023-01-23T02:08:53.705Z,30.00
2023-01-23T02:09:53.480Z,30.70
2023-01-23T02:10:53.509Z,31.00
2023-01-23T02:11:53.497Z,31.70
2023-01-23T02:12:53.499Z,29.70
2023-01-23T02:13:53.454Z,30.00
2023-01-23T02:14:53.454Z,31.50
2023-01-23T02:15:53.432Z,30.10
2023-01-23T02:16:53.431Z,30.30
2023-01-23T02:17:53.415Z,28.20
2023-01-23T02:18:53.394Z,29.20
2023-01-23T02:19:53.363Z,28.20
2023-01-23T02:20:53.377Z,28.30
2023-01-23T02:21:53.363Z,29.50
2023-01-23T02:22:53.369Z,27.90
2023-01-23T02:23:53.310Z,29.60
2023-01-23T02:24:53.321Z,29.90
2023-01-23T02:25:53.347Z,29.20
2023-01-23T02:26:53.308Z,30.30
2023-01-23T02:27:53.302Z,30.20
2023-01-23T02:28:53.269Z,29.20
2023-01-23T02:29:53.288Z,29.10
2023-01-23T02:30:53.327Z,28.70
2023-01-23T02:31:53.299Z,29.70
2023-01-23T02:32:53.225Z,28.50
2023-01-23T02:33:53.244Z,31.30
2023-01-23T02:34:53.198Z,27.80
2023-01-23T02:35:53.189Z,29.40
2023-01-23T02:36:53.221Z,29.90
2023-01-23T02:37:53.200Z,29.50
2023-01-23T02:38:53.160Z,29.40
2023-01-23T02:39:53.837Z,29.10
2023-01-23T02:40:53.135Z,28.30
2023-01-23T02:41:53.137Z,29.80
2023-01-23T02:42:53.134Z,29.10
2023-01-23T02:43:53.100Z,28.80
2023-01-23T02:44:53.109Z,29.00
2023-01-23T02:45:53.159Z,28.90
2023-01-23T02:46:53.070Z,29.00
2023-01-23T02:47:53.079Z,29.70
2023-01-23T02:48:53.063Z,30.40
2023-01-23T02:49:53.043Z,31.10
2023-01-23T02:50:53.275Z,30.20
2023-01-23T02:51:53.023Z,28.80
2023-01-23T02:52:53.040Z,30.70
2023-01-23T02:53:53.059Z,31.00
2023-01-23T02:54:52.989Z,29.30
2023-01-23T02:55:52.981Z,28.10
2023-01-23T02:56:52.969Z,29.50
2023-01-23T02:57:52.960Z,29.40
2023-01-23T02:58:53.002Z,29.80
2023-01-23T02:59:53.170Z,29.30
2023-01-23T03:00:52.956Z,29.80
2023-01-23T03:01:52.936Z,28.50
2023-01-23T03:02:52.921Z,29.20
2023-01-23T03:03:52.909Z,27.60
2023-01-23T03:04:52.890Z,28.70
2023-01-23T03:05:52.868Z,27.80
2023-01-23T03:06:52.877Z,28.60
2023-01-23T03:07:52.862Z,29.70
2023-01-23T03:08:52.826Z,29.00
2023-01-23T03:09:52.880Z,29.70
2023-01-23T03:10:52.816Z,28.30
2023-01-23T03:11:52.810Z,27.80
2023-01-23T03:12:52.799Z,29.50
2023-01-23T03:13:52.843Z,28.40
2023-01-23T03:14:52.803Z,28.50
2023-01-23T03:15:52.757Z,29.00
2023-01-23T03:16:52.755Z,28.90
2023-01-23T03:17:52.761Z,28.40
2023-01-23T03:18:54.731Z,28.90
2023-01-23T03:19:52.718Z,29.30
2023-01-23T03:20:52.722Z,28.80
2023-01-23T03:21:52.694Z,29.20
2023-01-23T03:22:52.710Z,27.90
2023-01-23T03:23:52.685Z,28.20
2023-01-23T03:24:52.676Z,29.70
2023-01-23T03:25:52.717Z,27.50
2023-01-23T03:26:53.597Z,29.00
2023-01-23T03:27:52.651Z,28.80
2023-01-23T03:28:53.607Z,26.80
2023-01-23T03:29:52.653Z,30.10
2023-01-23T03:30:52.629Z,29.70
2023-01-23T03:31:52.716Z,29.50
2023-01-23T03:32:52.580Z,27.70
2023-01-23T03:33:53.543Z,29.50
2023-01-23T03:34:53.513Z,30.00
2023-01-23T03:35:52.625Z,29.40
2023-01-23T03:36:52.672Z,29.50
2023-01-23T03:37:52.527Z,29.30
2023-01-23T03:38:52.955Z,29.30
2023-01-23T03:39:52.518Z,30.50
2023-01-23T03:40:52.509Z,30.00
2023-01-23T03:41:52.483Z,30.80
2023-01-23T03:42:52.532Z,30.10
2023-01-23T03:43:52.477Z,30.10
2023-01-23T03:44:52.448Z,30.90
2023-01-23T03:45:52.695Z,30.30
2023-01-23T03:46:52.446Z,29.40
2023-01-23T03:47:52.415Z,31.10
2023-01-23T03:48:52.411Z,33.10
2023-01-23T03:49:52.393Z,31.80
2023-01-23T03:50:52.468Z,29.30
2023-01-23T03:51:52.379Z,31.80
2023-01-23T03:52:52.378Z,31.40
2023-01-23T03:53:52.347Z,32.40
2023-01-23T03:54:52.374Z,31.90
2023-01-23T03:55:52.365Z,30.60
2023-01-23T03:56:52.348Z,31.50
2023-01-23T03:57:52.325Z,33.80
2023-01-23T03:58:52.299Z,31.50
2023-01-23T03:59:52.399Z,31.90
2023-01-23T04:00:52.335Z,31.80
2023-01-23T04:01:52.321Z,31.30
2023-01-23T04:02:52.325Z,33.10
2023-01-23T04:03:52.260Z,32.80
2023-01-23T04:04:52.225Z,33.10
2023-01-23T04:05:52.213Z,30.70
2023-01-23T04:06:52.213Z,33.30
2023-01-23T04:07:52.217Z,33.00
2023-01-23T04:08:52.220Z,32.40
2023-01-23T04:09:52.185Z,32.00
2023-01-23T04:10:52.160Z,32.50
2023-01-23T04:11:52.158Z,32.50
2023-01-23T04:12:52.163Z,31.90
2023-01-23T04:13:52.199Z,32.90
2023-01-23T04:14:52.127Z,33.20
2023-01-23T04:15:52.116Z,32.60
2023-01-23T04:16:52.168Z,32.50
2023-01-23T04:17:52.129Z,34.70
2023-01-23T04:18:52.125Z,32.40
2023-01-23T04:19:52.078Z,33.80
2023-01-23T04:20:52.071Z,34.30
2023-01-23T04:21:52.050Z,33.90
2023-01-23T04:22:52.038Z,34.90
2023-01-23T04:23:52.059Z,36.20
2023-01-23T04:24:52.010Z,33.80
2023-01-23T04:25:52.680Z,34.10
2023-01-23T04:26:52.003Z,35.50
2023-01-23T04:27:52.001Z,35.00
2023-01-23T04:28:52.026Z,34.60
2023-01-23T04:29:51.955Z,34.50
2023-01-23T04:30:52.058Z,37.30
2023-01-23T04:31:52.279Z,35.00
2023-01-23T04:32:51.945Z,35.80
2023-01-23T04:33:51.920Z,33.70
2023-01-23T04:34:51.924Z,34.50
2023-01-23T04:35:51.933Z,34.10
2023-01-23T04:36:51.920Z,34.20
2023-01-23T04:37:51.863Z,34.00
2023-01-23T04:38:51.870Z,33.00
2023-01-23T04:39:51.875Z,32.20
2023-01-23T04:40:51.892Z,34.80
2023-01-23T04:41:51.840Z,34.40
2023-01-23T04:42:51.883Z,34.70
2023-01-23T04:43:51.811Z,34.20
2023-01-23T04:44:51.806Z,33.50
2023-01-23T04:45:51.818Z,33.60
2023-01-23T04:46:51.803Z,33.20
2023-01-23T04:47:51.766Z,34.30
2023-01-23T04:48:51.758Z,35.20
2023-01-23T04:49:51.748Z,33.70
2023-01-23T04:50:51.805Z,34.60
2023-01-23T04:51:51.802Z,36.20
2023-01-23T04:52:51.712Z,34.50
2023-01-23T04:53:51.711Z,35.40
2023-01-23T04:54:51.714Z,34.70
2023-01-23T04:55:51.708Z,35.10
2023-01-23T04:56:51.684Z,35.00
2023-01-23T04:57:52.611Z,36.20
2023-01-23T04:58:51.654Z,37.40
2023-01-23T04:59:51.636Z,37.30
2023-01-23T05:00:51.625Z,34.90
2023-01-23T05:01:51.631Z,36.10
2023-01-23T05:02:51.673Z,35.80
2023-01-23T05:03:51.624Z,37.50
2023-01-23T05:04:51.579Z,36.60
2023-01-23T05:05:51.561Z,37.80
2023-01-23T05:06:51.545Z,37.30
2023-01-23T05:07:51.545Z,36.90
2023-01-23T05:08:52.564Z,36.10
2023-01-23T05:09:51.523Z,36.70
2023-01-23T05:10:51.517Z,37.20
2023-01-23T05:11:51.498Z,39.90
2023-01-23T05:12:51.473Z,39.50
2023-01-23T05:13:51.521Z,38.10
2023-01-23T05:14:51.507Z,39.10
2023-01-23T05:15:52.440Z,39.00
2023-01-23T05:16:51.433Z,37.50
2023-01-23T05:17:51.431Z,39.00
2023-01-23T05:18:51.441Z,38.80
2023-01-23T05:19:51.424Z,39.70
2023-01-23T05:20:51.404Z,41.40
2023-01-23T05:21:51.455Z,38.80
2023-01-23T05:22:51.385Z,39.60
2023-01-23T05:23:51.373Z,39.70
2023-01-23T05:24:51.395Z,37.40
2023-01-23T05:25:51.419Z,39.20
2023-01-23T05:26:51.419Z,38.80
2023-01-23T05:27:51.326Z,39.60
2023-01-23T05:28:51.328Z,38.60
2023-01-23T05:29:51.314Z,38.70
2023-01-23T05:30:51.413Z,38.90
2023-01-23T05:31:51.420Z,39.60
2023-01-23T05:32:51.264Z,39.60
2023-01-23T05:33:51.288Z,40.50
2023-01-23T05:34:51.244Z,40.40
2023-01-23T05:35:51.243Z,40.80
2023-01-23T05:36:51.324Z,40.30
2023-01-23T05:37:51.227Z,40.40
2023-01-23T05:38:51.206Z,41.50
2023-01-23T05:39:51.206Z,42.80
2023-01-23T05:40:51.170Z,40.90
2023-01-23T05:41:51.176Z,41.70
2023-01-23T05:42:51.161Z,42.30
2023-01-23T05:43:51.152Z,43.50
2023-01-23T05:44:51.130Z,40.10
2023-01-23T05:45:51.161Z,40.50
2023-01-23T05:46:51.127Z,40.20
2023-01-23T05:47:51.135Z,42.00
2023-01-23T05:48:51.121Z,41.80
2023-01-23T05:49:51.085Z,41.50
2023-01-23T05:50:51.102Z,44.40
2023-01-23T05:51:51.076Z,42.50
2023-01-23T05:52:51.056Z,42.20
2023-01-23T05:53:51.052Z,41.70
2023-01-23T05:54:51.011Z,42.50
2023-01-23T05:55:51.022Z,41.70
2023-01-23T05:56:51.012Z,41.40
2023-01-23T05:57:51.014Z,43.00
2023-01-23T05:58:50.969Z,42.40
2023-01-23T05:59:51.185Z,42.50
2023-01-23T06:00:50.965Z,43.90
2023-01-23T06:01:50.954Z,41.20
2023-01-23T06:02:51.014Z,44.40
2023-01-23T06:03:50.999Z,41.20
2023-01-23T06:04:50.916Z,44.40
2023-01-23T06:05:50.907Z,43.70
2023-01-23T06:06:50.889Z,43.60
2023-01-23T06:07:50.907Z,42.50
2023-01-23T06:08:50.884Z,42.30
2023-01-23T06:09:50.872Z,43.40
2023-01-23T06:10:50.850Z,44.40
2023-01-23T06:11:50.840Z,41.50
2023-01-23T06:12:50.821Z,44.10
2023-01-23T06:13:50.821Z,44.70
2023-01-23T06:14:50.816Z,41.50
2023-01-23T06:15:50.960Z,41.60
2023-01-23T06:16:50.789Z,41.60
2023-01-23T06:17:50.931Z,41.90
2023-01-23T06:18:50.810Z,44.30
2023-01-23T06:19:50.798Z,40.90
2023-01-23T06:20:50.738Z,41.60
2023-01-23T06:21:50.717Z,42.50
2023-01-23T06:22:50.751Z,41.50
2023-01-23T06:23:50.734Z,40.10
2023-01-23T06:24:50.708Z,42.00
2023-01-23T06:25:50.711Z,42.90
2023-01-23T06:26:51.342Z,41.40
2023-01-23T06:27:50.728Z,40.60
2023-01-23T06:28:50.656Z,40.60
2023-01-23T06:29:50.677Z,42.20
2023-01-23T06:30:51.352Z,42.30
2023-01-23T06:31:50.718Z,40.50
2023-01-23T06:32:50.618Z,41.60
2023-01-23T06:33:51.269Z,41.70
2023-01-23T06:34:50.595Z,40.70
2023-01-23T06:35:51.539Z,42.40
2023-01-23T06:36:50.579Z,41.30
2023-01-23T06:37:50.680Z,41.50
2023-01-23T06:38:50.561Z,40.80
2023-01-23T06:39:50.627Z,38.90
2023-01-23T06:40:50.539Z,42.00
2023-01-23T06:41:50.518Z,39.10
2023-01-23T06:42:50.508Z,40.30
2023-01-23T06:43:50.551Z,39.00
2023-01-23T06:44:50.479Z,41.40
2023-01-23T06:45:50.528Z,42.20
2023-01-23T06:46:50.647Z,41.40
2023-01-23T06:47:50.485Z,41.40
2023-01-23T06:48:50.429Z,39.60
2023-01-23T06:49:50.434Z,41.20
2023-01-23T06:50:50.442Z,41.10
2023-01-23T06:51:51.121Z,41.50
2023-01-23T06:52:50.390Z,40.90
2023-01-23T06:53:50.409Z,41.90
2023-01-23T06:54:50.368Z,42.60
2023-01-23T06:55:50.345Z,43.50
2023-01-23T06:56:50.327Z,40.40
2023-01-23T06:57:50.339Z,41.30
2023-01-23T06:58:50.325Z,43.30
2023-01-23T06:59:50.296Z,41.90
2023-01-23T07:00:50.375Z,41.10
2023-01-23T07:01:50.339Z,44.00
2023-01-23T07:02:50.287Z,39.80
2023-01-23T07:03:50.328Z,43.40
2023-01-23T07:04:50.253Z,40.80
2023-01-23T07:05:50.235Z,42.90
2023-01-23T07:06:50.225Z,43.50
2023-01-23T07:07:50.285Z,42.10
2023-01-23T07:08:50.240Z,41.70
2023-01-23T07:09:50.239Z,41.90
2023-01-23T07:10:50.192Z,42.20
2023-01-23T07:11:50.196Z,41.20
2023-01-23T07:12:50.155Z,42.90
2023-01-23T07:13:50.196Z,42.60
2023-01-23T07:14:50.168Z,42.10
2023-01-23T07:15:50.186Z,40.10
2023-01-23T07:16:50.124Z,41.00
2023-01-23T07:17:50.122Z,39.70
2023-01-23T07:18:50.106Z,40.60
2023-01-23T07:19:50.077Z,40.60
2023-01-23T07:20:50.091Z,39.30
2023-01-23T07:21:50.078Z,40.90
2023-01-23T07:22:50.052Z,39.70
2023-01-23T07:23:50.702Z,40.30
2023-01-23T07:24:50.072Z,40.70
2023-01-23T07:25:50.056Z,42.30
2023-01-23T07:26:50.039Z,40.50
2023-01-23T07:27:50.001Z,39.70
2023-01-23T07:28:49.998Z,41.00
2023-01-23T07:29:50.079Z,40.70
2023-01-23T07:30:50.011Z,40.60
2023-01-23T07:31:50.004Z,37.00
2023-01-23T07:32:49.966Z,41.10
2023-01-23T07:33:49.926Z,38.00
2023-01-23T07:34:49.923Z,39.00
2023-01-23T07:35:49.900Z,39.40
2023-01-23T07:36:49.966Z,39.60
2023-01-23T07:37:49.969Z,38.60
2023-01-23T07:38:49.890Z,37.20
2023-01-23T07:39:49.876Z,37.20
2023-01-23T07:40:49.873Z,37.10
2023-01-23T07:41:49.858Z,38.90
2023-01-23T07:42:49.842Z,41.90
2023-01-23T07:43:49.834Z,39.00
2023-01-23T07:44:49.818Z,39.00
2023-01-23T07:45:49.800Z,38.90
2023-01-23T07:46:49.901Z,38.30
2023-01-23T07:47:49.797Z,39.50
2023-01-23T07:48:49.790Z,39.10
2023-01-23T07:49:49.775Z,37.10
2023-01-23T07:50:49.804Z,37.60
2023-01-23T07:51:49.748Z,37.90
2023-01-23T07:52:49.737Z,38.60
2023-01-23T07:53:49.744Z,35.00
2023-01-23T07:54:49.726Z,34.30
2023-01-23T07:55:49.696Z,34.90
2023-01-23T07:56:49.686Z,31.50
2023-01-23T07:57:49.696Z,34.20
2023-01-23T07:58:49.699Z,34.20
2023-01-23T07:59:49.661Z,34.40
2023-01-23T08:00:49.716Z,32.60
2023-01-23T08:01:49.640Z,31.60
2023-01-23T08:02:49.633Z,31.40
2023-01-23T08:03:49.639Z,32.20
2023-01-23T08:04:49.604Z,32.80
2023-01-23T08:05:49.619Z,32.70
2023-01-23T08:06:49.579Z,33.40
2023-01-23T08:07:50.980Z,31.40
2023-01-23T08:08:49.549Z,32.60
2023-01-23T08:09:49.625Z,30.20
2023-01-23T08:10:49.558Z,30.50
2023-01-23T08:11:49.522Z,29.50
2023-01-23T08:12:49.528Z,27.80
2023-01-23T08:13:49.529Z,28.80
2023-01-23T08:14:49.479Z,28.20
2023-01-23T08:15:49.509Z,25.40
2023-01-23T08:16:49.484Z,26.90
2023-01-23T08:17:49.439Z,26.70
2023-01-23T08:18:49.438Z,28.40
2023-01-23T08:19:49.441Z,26.30
2023-01-23T08:20:49.412Z,28.20
2023-01-23T08:21:49.390Z,26.30
2023-01-23T08:22:49.441Z,26.00
2023-01-23T08:23:49.394Z,23.90
2023-01-23T08:24:49.372Z,25.40
2023-01-23T08:25:50.110Z,23.90
2023-01-23T08:26:49.364Z,25.70
2023-01-23T08:27:49.331Z,25.00
2023-01-23T08:28:49.352Z,26.30
2023-01-23T08:29:49.332Z,25.10
2023-01-23T08:30:49.342Z,24.40
2023-01-23T08:31:49.362Z,23.40
2023-01-23T08:32:49.303Z,25.70
2023-01-23T08:33:49.278Z,25.50
2023-01-23T08:34:49.283Z,22.60
2023-01-23T08:35:49.275Z,22.70
2023-01-23T08:36:49.348Z,23.80
2023-01-23T08:41:35.498Z,19.50
2023-01-23T08:42:35.496Z,18.20
2023-01-23T08:43:35.569Z,20.40
2023-01-23T08:44:35.465Z,20.40
2023-01-23T08:45:35.606Z,20.60
2023-01-23T08:46:35.453Z,19.70
2023-01-23T08:47:35.456Z,20.00
2023-01-23T08:48:35.557Z,20.80
2023-01-23T08:49:35.422Z,21.00
2023-01-23T08:50:35.438Z,19.40
2023-01-23T08:51:35.402Z,20.50
2023-01-23T08:52:35.420Z,20.90
2023-01-23T08:53:35.369Z,20.30
2023-01-23T08:54:35.387Z,18.40
2023-01-23T08:55:35.345Z,19.50
2023-01-23T08:56:35.329Z,19.00
2023-01-23T08:57:35.439Z,18.80
2023-01-23T08:58:35.341Z,20.60
2023-01-23T08:59:35.328Z,19.80
2023-01-23T09:00:35.353Z,21.10
2023-01-23T09:01:35.314Z,19.90
2023-01-23T09:02:35.285Z,19.40
2023-01-23T09:03:35.509Z,19.00
2023-01-23T09:04:35.246Z,19.90
2023-01-23T09:05:35.224Z,19.10
2023-01-23T09:06:35.920Z,18.60
2023-01-23T09:07:35.228Z,18.50
2023-01-23T09:08:36.101Z,18.50
2023-01-23T09:09:35.200Z,19.00
2023-01-23T09:10:37.931Z,18.90
2023-01-23T09:11:35.188Z,19.10
2023-01-23T09:12:35.179Z,18.30
2023-01-23T09:13:35.147Z,17.50
2023-01-23T09:14:35.163Z,18.80
2023-01-23T09:15:35.138Z,19.30
2023-01-23T09:16:36.005Z,19.20
2023-01-23T09:17:35.137Z,18.70
2023-01-23T09:18:35.191Z,18.80
2023-01-23T09:19:35.097Z,19.40
2023-01-23T09:20:35.096Z,18.70
2023-01-23T09:21:35.073Z,18.40
2023-01-23T09:22:35.060Z,18.60
2023-01-23T09:23:35.180Z,17.60
2023-01-23T09:24:35.024Z,17.20
2023-01-23T09:25:35.024Z,17.00
2023-01-23T09:26:35.040Z,17.40
2023-01-23T09:27:35.009Z,16.90
2023-01-23T09:28:34.999Z,16.20
2023-01-23T09:29:34.991Z,15.90
2023-01-23T09:30:34.985Z,17.80
2023-01-23T09:31:34.970Z,15.90
2023-01-23T09:32:35.058Z,16.30
2023-01-23T09:33:34.994Z,17.30
2023-01-23T09:34:34.939Z,16.60
2023-01-23T09:35:34.906Z,15.90
2023-01-23T09:36:42.951Z,15.70
2023-01-23T09:37:35.884Z,14.60
2023-01-23T09:38:34.862Z,15.10
2023-01-23T09:39:34.914Z,14.50
2023-01-23T09:40:34.879Z,15.50
2023-01-23T09:41:34.964Z,15.60
2023-01-23T09:42:34.846Z,14.80
2023-01-23T09:43:34.838Z,13.50
2023-01-23T09:44:34.836Z,14.20
2023-01-23T09:45:35.027Z,15.50
2023-01-23T09:46:34.809Z,15.90
2023-01-23T09:47:34.775Z,14.60
2023-01-23T09:48:34.773Z,15.40
2023-01-23T09:49:34.778Z,14.60
2023-01-23T09:50:34.793Z,15.70
2023-01-23T09:51:34.754Z,16.30
2023-01-23T09:52:34.748Z,15.60
2023-01-23T09:53:34.723Z,15.90
2023-01-23T09:54:34.737Z,17.00
2023-01-23T09:55:34.695Z,15.30
2023-01-23T09:56:34.692Z,15.40
2023-01-23T09:57:34.708Z,15.00
2023-01-23T09:58:34.684Z,16.20
2023-01-23T09:59:34.667Z,16.80
2023-01-23T10:00:34.654Z,14.80
2023-01-23T10:01:34.745Z,15.60
2023-01-23T10:02:34.649Z,15.10
2023-01-23T10:03:34.626Z,16.30
2023-01-23T10:04:34.603Z,16.00
2023-01-23T10:05:34.601Z,16.60
2023-01-23T10:06:34.583Z,15.50
2023-01-23T10:07:34.588Z,15.60
2023-01-23T10:08:34.540Z,15.50
2023-01-23T10:09:34.555Z,15.80
2023-01-23T10:10:35.285Z,16.20
2023-01-23T10:11:34.546Z,13.10
2023-01-23T10:12:34.524Z,15.80
2023-01-23T10:13:34.517Z,15.10
2023-01-23T10:14:36.504Z,13.80
2023-01-23T10:15:34.495Z,16.30
2023-01-23T10:16:49.158Z,15.40
2023-01-23T10:17:35.475Z,15.50
2023-01-23T10:18:34.454Z,15.00
2023-01-23T10:19:34.452Z,15.40
2023-01-23T10:20:34.445Z,15.20
2023-01-23T10:21:34.416Z,15.00
2023-01-23T10:22:34.421Z,14.30
2023-01-23T10:23:34.415Z,14.00
2023-01-23T10:24:40.143Z,14.00
2023-01-23T10:25:35.402Z,13.80
2023-01-23T10:26:34.364Z,16.10
2023-01-23T10:27:34.373Z,14.80
2023-01-23T10:28:34.331Z,15.70
2023-01-23T10:29:34.358Z,15.00
2023-01-23T10:30:34.506Z,14.70
2023-01-23T10:31:35.319Z,16.30
2023-01-23T10:33:34.316Z,15.20
2023-01-23T10:34:34.315Z,13.70
2023-01-23T10:35:34.277Z,13.90
2023-01-23T10:36:47.676Z,15.20
2023-01-23T10:37:35.264Z,13.90
2023-01-23T10:38:34.232Z,13.50
2023-01-23T10:39:34.219Z,15.10
2023-01-23T10:40:34.283Z,15.00
2023-01-23T10:41:34.250Z,16.10
2023-01-23T10:42:34.190Z,16.00
2023-01-23T10:43:34.197Z,15.70
2023-01-23T10:44:34.186Z,14.00
2023-01-23T10:45:34.173Z,14.50
2023-01-23T10:46:34.305Z,14.50
2023-01-23T10:47:34.499Z,14.60
2023-01-23T10:48:34.144Z,15.90
2023-01-23T10:49:34.122Z,15.50
2023-01-23T10:50:34.121Z,15.80
2023-01-23T10:51:34.223Z,16.60
2023-01-23T10:52:34.162Z,15.90
2023-01-23T10:53:34.117Z,14.10
2023-01-23T10:54:34.156Z,15.30
2023-01-23T10:55:34.088Z,16.70
2023-01-23T10:56:34.056Z,15.50
2023-01-23T10:57:34.067Z,16.50
2023-01-23T10:58:34.041Z,16.40
2023-01-23T10:59:34.030Z,15.50
2023-01-23T11:00:34.036Z,15.60
2023-01-23T11:01:34.075Z,15.70
2023-01-23T11:02:34.090Z,15.50
2023-01-23T11:03:34.008Z,16.30
2023-01-23T11:04:33.948Z,16.10
2023-01-23T11:05:43.484Z,15.90
2023-01-23T11:06:34.931Z,15.10
2023-01-23T11:07:33.932Z,16.80
2023-01-23T11:08:33.913Z,16.90
2023-01-23T11:09:33.921Z,16.20
2023-01-23T11:10:33.886Z,14.60
2023-01-23T11:11:33.921Z,15.50
2023-01-23T11:12:34.301Z,16.70
2023-01-23T11:13:33.881Z,17.70
2023-01-23T11:14:33.874Z,16.10
2023-01-23T11:15:33.936Z,14.60
2023-01-23T11:16:33.861Z,15.10
2023-01-23T11:17:33.812Z,15.60
2023-01-23T11:18:33.806Z,16.40
2023-01-23T11:19:33.827Z,17.00
2023-01-23T11:20:33.798Z,15.60
2023-01-23T11:21:33.794Z,16.50
2023-01-23T11:22:33.774Z,16.00
2023-01-23T11:23:33.801Z,16.10
2023-01-23T11:24:40.311Z,15.80
2023-01-23T11:25:34.740Z,17.70
2023-01-23T11:26:33.773Z,15.80
2023-01-23T11:27:33.701Z,16.70
2023-01-23T11:28:33.708Z,15.80
2023-01-23T11:29:33.714Z,15.40
2023-01-23T11:30:33.735Z,16.40
2023-01-23T11:31:33.819Z,16.50
2023-01-23T11:32:33.701Z,15.80
2023-01-23T11:33:33.670Z,15.80
2023-01-23T11:34:33.668Z,16.40
2023-01-23T11:35:33.634Z,16.40
2023-01-23T11:36:33.720Z,16.20
2023-01-23T11:37:33.593Z,16.30
2023-01-23T11:38:34.457Z,15.70
2023-01-23T11:39:33.593Z,14.70
2023-01-23T11:40:33.566Z,15.50
2023-01-23T11:41:33.587Z,15.00
2023-01-23T11:42:33.582Z,15.30
2023-01-23T11:43:33.571Z,16.20
2023-01-23T11:44:45.048Z,15.80
2023-01-23T11:45:34.528Z,15.80
2023-01-23T11:46:33.606Z,15.30
2023-01-23T11:47:33.504Z,15.00
2023-01-23T11:48:33.480Z,14.90
2023-01-23T11:49:33.469Z,16.70
2023-01-23T11:50:35.400Z,16.50
2023-01-23T11:51:33.533Z,16.20
2023-01-23T11:52:33.470Z,16.50
2023-01-23T11:53:41.747Z,15.00
2023-01-23T11:54:34.433Z,16.60
2023-01-23T11:55:34.812Z,16.20
2023-01-23T11:56:33.539Z,15.90
2023-01-23T11:57:33.393Z,16.80
2023-01-23T11:58:37.160Z,15.00
2023-01-23T11:59:34.365Z,15.70
2023-01-23T12:00:33.381Z,15.40
2023-01-23T12:01:33.341Z,15.90
2023-01-23T12:02:33.403Z,16.00
2023-01-23T12:03:33.444Z,15.40
2023-01-23T12:04:33.456Z,15.50
2023-01-23T12:05:33.302Z,14.30
2023-01-23T12:06:33.511Z,15.50
2023-01-23T12:07:33.318Z,14.60
2023-01-23T12:08:33.326Z,14.90
2023-01-23T12:09:33.298Z,16.00
2023-01-23T12:10:33.341Z,17.60
2023-01-23T12:11:33.275Z,16.90
2023-01-23T12:12:33.522Z,16.20
2023-01-23T12:13:33.311Z,15.80
2023-01-23T12:14:33.271Z,15.40
2023-01-23T12:15:33.248Z,15.20
2023-01-23T12:16:33.375Z,15.80
2023-01-23T12:17:33.269Z,15.20
2023-01-23T12:18:33.216Z,16.50
2023-01-23T12:19:33.244Z,15.30
2023-01-23T12:20:33.274Z,16.20
2023-01-23T12:21:33.459Z,14.50
2023-01-23T12:22:33.282Z,15.30
2023-01-23T12:23:33.190Z,14.30
2023-01-23T12:24:33.167Z,14.40
2023-01-23T12:25:33.155Z,15.30
2023-01-23T12:26:33.144Z,15.70
2023-01-23T12:27:33.194Z,15.70
2023-01-23T12:28:33.052Z,15.30
2023-01-23T12:29:33.216Z,17.10
2023-01-23T12:30:33.104Z,16.10
2023-01-23T12:31:33.204Z,15.30
2023-01-23T12:32:33.082Z,15.10
2023-01-23T12:33:33.210Z,16.00
2023-01-23T12:34:33.093Z,15.90
2023-01-23T12:35:33.172Z,15.00
2023-01-23T12:36:34.139Z,15.50
2023-01-23T12:37:33.395Z,14.90
2023-01-23T12:38:33.049Z,14.40
2023-01-23T12:39:32.964Z,15.30
2023-01-23T12:40:33.386Z,15.80
2023-01-23T12:41:32.993Z,14.90
2023-01-23T12:42:33.432Z,14.50
2023-01-23T12:43:33.000Z,14.30
2023-01-23T12:44:32.908Z,14.80
2023-01-23T12:45:33.033Z,13.90
2023-01-23T12:46:33.072Z,15.20
2023-01-23T12:47:33.139Z,14.50
2023-01-23T12:48:32.902Z,14.30
2023-01-23T12:49:32.834Z,13.80
2023-01-23T12:50:32.863Z,14.20
2023-01-23T12:51:32.877Z,14.20
2023-01-23T12:52:32.978Z,15.10
2023-01-23T12:53:32.818Z,14.50
2023-01-23T12:54:32.787Z,14.80
2023-01-23T12:55:32.759Z,14.00
2023-01-23T12:56:32.862Z,14.10
2023-01-23T12:57:45.893Z,14.40